createdAt,value
2018-04-28T00:00:15.811Z,61.20
2018-04-28T00:02:44.135Z,61.26
2018-04-28T00:05:12.484Z,61.26
2018-04-28T00:07:40.807Z,61.22
2018-04-28T00:10:09.165Z,61.08
2018-04-28T00:12:37.492Z,61.23
2018-04-28T00:15:05.853Z,61.34
2018-04-28T00:17:34.930Z,61.58
2018-04-28T00:20:05.192Z,61.69
2018-04-28T00:22:35.435Z,61.69
2018-04-28T00:25:16.308Z,61.87
2018-04-28T00:27:49.077Z,61.97
2018-04-28T00:30:34.961Z,61.89
2018-04-28T00:33:08.832Z,61.87
2018-04-28T00:35:37.188Z,61.91
2018-04-28T00:38:05.519Z,61.64
2018-04-28T00:40:39.706Z,61.48
2018-04-28T00:43:08.043Z,61.37
2018-04-28T00:45:38.116Z,61.35
2018-04-28T00:48:10.904Z,61.35
2018-04-28T00:50:40.787Z,61.64
2018-04-28T00:53:09.121Z,61.62
2018-04-28T00:55:38.377Z,61.68
2018-04-28T01:01:06.964Z,61.97
2018-04-28T01:03:36.033Z,61.85
2018-04-28T01:06:04.384Z,62.18
2018-04-28T01:08:32.717Z,62.22
2018-04-28T01:11:05.896Z,62.28
2018-04-28T01:13:41.281Z,62.33
2018-04-28T01:16:09.632Z,62.53
2018-04-28T01:18:42.680Z,62.42
2018-04-28T01:21:11.026Z,62.40
2018-04-28T01:23:50.857Z,62.35
2018-04-28T01:26:26.132Z,62.34
2018-04-28T01:28:56.981Z,62.36
2018-04-28T01:31:25.976Z,62.77
2018-04-28T01:37:02.232Z,63.05
2018-04-28T01:39:35.212Z,63.02
2018-04-28T01:45:23.305Z,62.90
2018-04-28T01:50:59.105Z,62.60
2018-04-28T01:53:28.016Z,62.46
2018-04-28T01:56:02.901Z,62.33
2018-04-28T01:58:37.136Z,62.18
2018-04-28T02:01:06.060Z,62.00
2018-04-28T02:03:38.976Z,62.03
2018-04-28T02:06:13.208Z,61.72
2018-04-28T02:08:42.256Z,61.25
2018-04-28T02:11:17.495Z,61.53
2018-04-28T02:13:46.608Z,61.43
2018-04-28T02:19:16.533Z,62.08
2018-04-28T02:25:00.212Z,61.41
2018-04-28T02:27:34.456Z,61.55
2018-04-28T02:30:04.348Z,61.67
2018-04-28T02:35:35.069Z,61.74
2018-04-28T02:38:05.241Z,61.77
2018-04-28T02:43:38.097Z,62.30
2018-04-28T02:46:06.429Z,62.23
2018-04-28T02:51:40.041Z,62.36
2018-04-28T02:54:09.918Z,62.07
2018-04-28T02:56:38.273Z,62.15
2018-04-28T02:59:17.489Z,61.64
2018-04-28T03:01:52.152Z,61.84
2018-04-28T03:04:35.384Z,61.70
2018-04-28T03:10:15.657Z,62.13
2018-04-28T03:12:43.728Z,62.33
2018-04-28T03:15:11.785Z,62.16
2018-04-28T03:17:48.832Z,62.01
2018-04-28T03:20:18.456Z,62.04
2018-04-28T03:22:48.768Z,62.14
2018-04-28T03:25:33.109Z,62.35
2018-04-28T03:28:04.368Z,62.56
2018-04-28T03:30:33.790Z,62.59
2018-04-28T03:33:08.244Z,62.75
2018-04-28T03:35:36.292Z,62.92
2018-04-28T03:38:05.236Z,63.20
2018-04-28T03:40:36.220Z,63.41
2018-04-28T03:43:06.858Z,63.44
2018-04-28T03:45:35.744Z,63.20
2018-04-28T03:51:23.849Z,64.35
2018-04-28T03:54:04.416Z,64.33
2018-04-28T03:56:35.053Z,64.36
2018-04-28T03:59:14.864Z,64.44
2018-04-28T04:01:54.627Z,64.68
2018-04-28T04:04:30.384Z,64.95
2018-04-28T04:07:03.107Z,64.83
2018-04-28T04:09:49.796Z,64.53
2018-04-28T04:12:44.428Z,64.81
2018-04-28T04:18:16.032Z,64.51
2018-04-28T04:20:52.831Z,64.26
2018-04-28T04:23:37.588Z,64.27
2018-04-28T04:26:13.204Z,64.22
2018-04-28T04:31:47.956Z,64.12
2018-04-28T04:37:36.318Z,64.09
2018-04-28T04:40:05.884Z,64.07
2018-04-28T04:42:43.612Z,64.03
2018-04-28T04:45:12.481Z,63.89
2018-04-28T04:47:51.177Z,63.21
2018-04-28T04:53:30.816Z,62.45
2018-04-28T04:56:07.328Z,62.35
2018-04-28T04:58:41.273Z,62.94
2018-04-28T05:01:29.816Z,62.97
2018-04-28T05:04:03.873Z,62.41
2018-04-28T05:06:40.389Z,62.79
2018-04-28T05:09:24.125Z,62.78
2018-04-28T05:11:57.826Z,62.79
2018-04-28T05:14:31.584Z,62.39
2018-04-28T05:20:14.300Z,61.60
2018-04-28T05:26:06.048Z,61.44
2018-04-28T05:28:41.864Z,60.89
2018-04-28T05:34:23.765Z,59.97
2018-04-28T05:36:59.386Z,59.83
2018-04-28T05:39:33.273Z,59.94
2018-04-28T05:42:27.788Z,60.21
2018-04-28T05:48:32.456Z,61.36
2018-04-28T05:51:15.900Z,61.12
2018-04-28T05:57:07.499Z,59.40
2018-04-28T05:59:41.133Z,60.62
2018-04-28T06:02:12.928Z,60.59
2018-04-28T06:04:47.669Z,61.17
2018-04-28T06:10:22.013Z,60.95
2018-04-28T06:13:01.924Z,59.61
2018-04-28T06:15:37.525Z,60.04
2018-04-28T06:18:17.537Z,60.13
2018-04-28T06:20:46.389Z,59.98
2018-04-28T06:23:14.433Z,60.10
2018-04-28T06:25:42.501Z,59.61
2018-04-28T06:28:10.554Z,59.39
2018-04-28T06:30:38.612Z,59.07
2018-04-28T06:33:06.665Z,58.42
2018-04-28T06:35:34.731Z,57.00
2018-04-28T06:38:02.778Z,56.04
2018-04-28T06:40:30.843Z,55.16
2018-04-28T06:42:58.889Z,54.29
2018-04-28T06:45:26.956Z,52.47
2018-04-28T06:47:55.004Z,52.25
2018-04-28T06:50:23.069Z,53.30
2018-04-28T06:52:51.112Z,53.68
2018-04-28T06:55:19.180Z,53.54
2018-04-28T06:57:47.232Z,53.91
2018-04-28T07:00:16.213Z,53.96
2018-04-28T07:02:44.281Z,53.92
2018-04-28T07:05:12.343Z,54.04
2018-04-28T07:07:40.393Z,54.77
2018-04-28T07:10:08.470Z,53.13
2018-04-28T07:12:36.520Z,52.88
2018-04-28T07:15:04.597Z,52.57
2018-04-28T07:17:32.640Z,51.70
2018-04-28T07:20:00.705Z,51.75
2018-04-28T07:22:28.761Z,49.55
2018-04-28T07:24:56.869Z,49.22
2018-04-28T07:27:24.920Z,50.42
2018-04-28T07:29:52.972Z,50.09
2018-04-28T07:32:21.021Z,50.00
2018-04-28T07:34:49.089Z,50.15
2018-04-28T07:37:17.140Z,50.14
2018-04-28T07:39:45.204Z,50.09
2018-04-28T07:42:13.319Z,49.69
2018-04-28T07:44:41.317Z,51.31
2018-04-28T07:47:09.370Z,51.05
2018-04-28T07:49:37.425Z,50.92
2018-04-28T07:52:05.473Z,51.18
2018-04-28T07:54:33.545Z,51.01
2018-04-28T07:57:01.589Z,50.53
2018-04-28T07:59:30.189Z,51.34
2018-04-28T08:01:58.353Z,50.82
2018-04-28T08:04:26.384Z,51.10
2018-04-28T08:06:54.526Z,50.74
2018-04-28T08:09:22.519Z,50.28
2018-04-28T08:11:50.580Z,50.84
2018-04-28T08:14:18.620Z,50.33
2018-04-28T08:16:46.691Z,49.56
2018-04-28T08:19:14.737Z,49.79
2018-04-28T08:21:42.806Z,49.12
2018-04-28T08:24:10.854Z,48.60
2018-04-28T08:26:39.813Z,50.63
2018-04-28T08:29:07.860Z,50.44
2018-04-28T08:31:35.924Z,49.45
2018-04-28T08:34:03.977Z,49.15
2018-04-28T08:36:33.812Z,48.69
2018-04-28T08:39:02.168Z,48.85
2018-04-28T08:41:30.364Z,48.83
2018-04-28T08:43:58.396Z,49.05
2018-04-28T08:46:26.460Z,48.64
2018-04-28T08:48:54.509Z,49.31
2018-04-28T08:51:23.715Z,48.36
2018-04-28T08:53:52.133Z,49.00
2018-04-28T08:56:20.624Z,46.94
2018-04-28T08:58:48.926Z,47.76
2018-04-28T09:01:17.252Z,49.92
2018-04-28T09:03:46.972Z,49.38
2018-04-28T09:06:16.831Z,49.85
2018-04-28T09:08:45.204Z,50.41
2018-04-28T09:11:13.960Z,47.59
2018-04-28T09:13:42.340Z,48.42
2018-04-28T09:16:10.693Z,49.57
2018-04-28T09:18:39.976Z,47.54
2018-04-28T09:21:08.562Z,46.71
2018-04-28T09:23:37.078Z,46.36
2018-04-28T09:26:05.675Z,45.11
2018-04-28T09:28:34.099Z,45.14
2018-04-28T09:31:02.758Z,44.77
2018-04-28T09:33:31.511Z,46.04
2018-04-28T09:36:00.223Z,44.58
2018-04-28T09:38:29.064Z,43.30
2018-04-28T09:40:58.953Z,44.07
2018-04-28T09:43:27.647Z,43.41
2018-04-28T09:45:56.355Z,45.24
2018-04-28T09:48:24.888Z,44.95
2018-04-28T09:50:53.515Z,45.84
2018-04-28T09:53:22.082Z,45.64
2018-04-28T09:55:50.730Z,45.78
2018-04-28T09:58:20.231Z,45.50
2018-04-28T10:00:51.442Z,45.41
2018-04-28T10:03:21.961Z,45.81
2018-04-28T10:05:50.631Z,45.78
2018-04-28T10:08:19.174Z,45.61
2018-04-28T10:10:47.868Z,45.66
2018-04-28T10:13:16.497Z,45.77
2018-04-28T10:15:44.945Z,44.84
2018-04-28T10:18:13.272Z,45.06
2018-04-28T10:20:41.609Z,45.94
2018-04-28T10:23:09.988Z,46.61
2018-04-28T10:25:38.354Z,46.24
2018-04-28T10:28:06.705Z,47.09
2018-04-28T10:30:35.064Z,47.70
2018-04-28T10:33:03.413Z,46.40
2018-04-28T10:35:31.781Z,46.74
2018-04-28T10:38:00.142Z,46.11
2018-04-28T10:40:28.490Z,46.41
2018-04-28T10:42:56.840Z,45.77
2018-04-28T10:45:25.895Z,46.52
2018-04-28T10:47:54.290Z,44.22
2018-04-28T10:50:22.644Z,45.82
2018-04-28T10:52:50.985Z,46.91
2018-04-28T10:55:19.317Z,46.70
2018-04-28T10:57:47.673Z,46.59
2018-04-28T11:00:15.996Z,45.27
2018-04-28T11:02:44.346Z,45.37
2018-04-28T11:05:13.000Z,45.55
2018-04-28T11:07:41.382Z,45.32
2018-04-28T11:10:26.316Z,44.49
2018-04-28T11:12:54.671Z,43.77
2018-04-28T11:15:23.008Z,43.38
2018-04-28T11:17:51.361Z,43.19
2018-04-28T11:20:19.697Z,42.83
2018-04-28T11:22:48.049Z,43.13
2018-04-28T11:25:16.391Z,43.76
2018-04-28T11:27:44.749Z,43.66
2018-04-28T11:30:13.093Z,43.51
2018-04-28T11:32:41.453Z,43.47
2018-04-28T11:35:09.772Z,44.31
2018-04-28T11:37:38.120Z,43.77
2018-04-28T11:40:06.454Z,43.77
2018-04-28T11:42:34.796Z,42.93
2018-04-28T11:45:03.120Z,43.19
2018-04-28T11:47:31.476Z,43.63
2018-04-28T11:49:59.874Z,43.67
2018-04-28T11:52:28.221Z,43.24
2018-04-28T11:54:56.548Z,43.64
2018-04-28T11:57:24.905Z,43.17
2018-04-28T11:59:53.237Z,44.02
2018-04-28T12:02:21.590Z,42.27
2018-04-28T12:04:49.921Z,42.13
2018-04-28T12:07:18.268Z,41.91
2018-04-28T12:09:46.605Z,39.84
2018-04-28T12:12:14.961Z,39.90
2018-04-28T12:14:43.305Z,38.86
2018-04-28T12:17:11.648Z,40.30
2018-04-28T12:19:39.976Z,40.98
2018-04-28T12:22:08.325Z,41.00
2018-04-28T12:24:36.657Z,41.38
2018-04-28T12:27:05.004Z,40.57
2018-04-28T12:29:33.324Z,39.25
2018-04-28T12:32:02.359Z,40.05
2018-04-28T12:34:30.683Z,40.01
2018-04-28T12:36:59.025Z,39.87
2018-04-28T12:39:27.373Z,40.56
2018-04-28T12:41:55.705Z,40.45
2018-04-28T12:44:24.062Z,41.01
2018-04-28T12:46:52.381Z,40.64
2018-04-28T12:49:20.733Z,39.62
2018-04-28T12:51:49.079Z,40.86
2018-04-28T12:54:17.417Z,41.78
2018-04-28T12:56:45.746Z,40.45
2018-04-28T12:59:14.089Z,42.37
2018-04-28T13:01:42.419Z,40.22
2018-04-28T13:04:10.764Z,39.61
2018-04-28T13:06:39.985Z,41.05
2018-04-28T13:09:08.349Z,41.15
2018-04-28T13:11:36.845Z,40.81
2018-04-28T13:14:05.121Z,41.32
2018-04-28T13:16:34.427Z,40.38
2018-04-28T13:19:02.781Z,40.80
2018-04-28T13:21:31.121Z,42.58
2018-04-28T13:23:59.473Z,42.80
2018-04-28T13:26:27.797Z,41.89
2018-04-28T13:28:56.165Z,42.25
2018-04-28T13:31:24.501Z,43.14
2018-04-28T13:33:52.852Z,42.12
2018-04-28T13:36:21.177Z,41.75
2018-04-28T13:38:49.532Z,43.42
2018-04-28T13:41:17.857Z,42.81
2018-04-28T13:43:46.251Z,41.14
2018-04-28T13:46:14.568Z,41.34
2018-04-28T13:48:42.929Z,39.22
2018-04-28T13:51:11.256Z,41.12
2018-04-28T13:53:39.613Z,39.57
2018-04-28T13:56:08.015Z,39.76
2018-04-28T13:58:36.301Z,41.02
2018-04-28T14:01:04.633Z,39.81
2018-04-28T14:03:32.977Z,40.33
2018-04-28T14:06:01.310Z,40.93
2018-04-28T14:08:29.676Z,40.53
2018-04-28T14:10:58.149Z,41.76
2018-04-28T14:13:26.493Z,41.27
2018-04-28T14:15:54.826Z,42.26
2018-04-28T14:18:23.178Z,41.29
2018-04-28T14:20:51.509Z,40.72
2018-04-28T14:23:19.853Z,39.71
2018-04-28T14:25:48.190Z,40.20
2018-04-28T14:28:16.541Z,40.23
2018-04-28T14:30:44.873Z,39.76
2018-04-28T14:33:13.215Z,38.84
2018-04-28T14:35:41.551Z,40.16
2018-04-28T14:38:09.876Z,40.83
2018-04-28T14:40:38.226Z,40.72
2018-04-28T14:43:06.552Z,38.87
2018-04-28T14:45:34.906Z,38.39
2018-04-28T14:48:03.240Z,39.99
2018-04-28T14:50:31.593Z,39.59
2018-04-28T14:52:59.920Z,41.14
2018-04-28T14:55:28.264Z,41.17
2018-04-28T14:57:56.592Z,40.77
2018-04-28T15:00:24.953Z,41.41
2018-04-28T15:02:53.289Z,40.40
2018-04-28T15:05:21.641Z,39.75
2018-04-28T15:07:49.986Z,41.04
2018-04-28T15:10:18.973Z,40.70
2018-04-28T15:12:47.302Z,39.63
2018-04-28T15:15:15.652Z,38.22
2018-04-28T15:17:43.994Z,37.04
2018-04-28T15:20:12.349Z,37.83
2018-04-28T15:22:40.683Z,38.08
2018-04-28T15:25:09.124Z,39.50
2018-04-28T15:27:37.463Z,37.74
2018-04-28T15:30:05.849Z,37.11
2018-04-28T15:32:34.170Z,37.54
2018-04-28T15:35:02.531Z,37.13
2018-04-28T15:37:30.918Z,37.32
2018-04-28T15:39:59.252Z,37.81
2018-04-28T15:42:27.572Z,37.34
2018-04-28T15:44:55.922Z,37.04
2018-04-28T15:47:24.311Z,37.64
2018-04-28T15:49:53.439Z,37.78
2018-04-28T15:52:21.752Z,37.65
2018-04-28T15:54:50.105Z,38.35
2018-04-28T15:57:24.890Z,38.63
2018-04-28T15:59:58.952Z,39.04
2018-04-28T16:02:28.208Z,39.63
2018-04-28T16:04:56.587Z,38.13
2018-04-28T16:07:24.936Z,38.50
2018-04-28T16:09:53.300Z,38.62
2018-04-28T16:12:21.625Z,38.84
2018-04-28T16:14:50.216Z,39.12
2018-04-28T16:17:18.513Z,38.20
2018-04-28T16:19:46.872Z,39.04
2018-04-28T16:22:15.228Z,39.19
2018-04-28T16:24:43.589Z,39.90
2018-04-28T16:27:12.482Z,39.02
2018-04-28T16:29:41.421Z,39.04
2018-04-28T16:32:09.773Z,39.32
2018-04-28T16:34:38.092Z,39.47
2018-04-28T16:37:06.436Z,39.28
2018-04-28T16:39:34.785Z,39.40
2018-04-28T16:42:08.613Z,39.41
2018-04-28T16:44:38.341Z,40.11
2018-04-28T16:47:06.697Z,40.58
2018-04-28T16:49:35.030Z,40.58
2018-04-28T16:52:03.432Z,40.43
2018-04-28T16:54:31.845Z,41.14
2018-04-28T16:57:00.240Z,41.01
2018-04-28T16:59:35.646Z,41.43
2018-04-28T17:02:09.781Z,40.80
2018-04-28T17:04:38.153Z,41.61
2018-04-28T17:07:06.529Z,41.86
2018-04-28T17:09:34.870Z,41.62
2018-04-28T17:12:03.218Z,42.04
2018-04-28T17:14:31.570Z,42.18
2018-04-28T17:17:00.128Z,41.75
2018-04-28T17:19:28.372Z,42.15
2018-04-28T17:22:00.161Z,43.37
2018-04-28T17:24:30.505Z,42.25
2018-04-28T17:26:58.865Z,42.32
2018-04-28T17:29:27.197Z,41.99
2018-04-28T17:31:55.569Z,42.25
2018-04-28T17:34:23.873Z,42.52
2018-04-28T17:36:52.219Z,42.86
2018-04-28T17:39:20.553Z,43.03
2018-04-28T17:41:48.905Z,42.76
2018-04-28T17:44:17.238Z,43.02
2018-04-28T17:46:45.607Z,43.14
2018-04-28T17:49:14.328Z,43.57
2018-04-28T17:51:42.745Z,43.90
2018-04-28T17:54:11.888Z,44.13
2018-04-28T17:56:40.236Z,44.49
2018-04-28T17:59:08.569Z,45.12
2018-04-28T18:01:36.920Z,45.01
2018-04-28T18:04:05.264Z,44.91
2018-04-28T18:06:34.521Z,44.65
2018-04-28T18:09:02.849Z,44.92
2018-04-28T18:11:31.200Z,45.07
2018-04-28T18:13:59.750Z,45.40
2018-04-28T18:16:28.101Z,45.97
2018-04-28T18:18:56.426Z,46.40
2018-04-28T18:21:24.780Z,47.02
2018-04-28T18:23:57.710Z,47.31
2018-04-28T18:26:26.170Z,47.87
2018-04-28T18:28:54.492Z,47.98
2018-04-28T18:31:22.840Z,48.24
2018-04-28T18:33:51.169Z,47.96
2018-04-28T18:36:19.631Z,48.10
2018-04-28T18:38:47.961Z,48.01
2018-04-28T18:41:16.441Z,48.23
2018-04-28T18:43:44.822Z,47.77
2018-04-28T18:46:13.247Z,47.41
2018-04-28T18:48:41.701Z,47.63
2018-04-28T18:51:10.203Z,47.65
2018-04-28T18:53:38.621Z,47.84
2018-04-28T18:56:07.077Z,48.04
2018-04-28T18:58:35.669Z,47.96
2018-04-28T19:01:04.013Z,47.98
2018-04-28T19:03:32.389Z,47.76
2018-04-28T19:06:00.722Z,47.95
2018-04-28T19:11:02.565Z,47.58
2018-04-28T19:13:30.919Z,47.65
2018-04-28T19:15:59.271Z,47.00
2018-04-28T19:18:27.625Z,47.41
2018-04-28T19:20:56.022Z,48.05
2018-04-28T19:23:24.380Z,48.22
2018-04-28T19:25:52.745Z,48.84
2018-04-28T19:28:21.097Z,49.38
2018-04-28T19:30:49.505Z,49.25
2018-04-28T19:33:17.923Z,49.28
2018-04-28T19:35:46.244Z,49.50
2018-04-28T19:38:15.388Z,49.75
2018-04-28T19:40:43.720Z,49.84
2018-04-28T19:43:12.093Z,50.26
2018-04-28T19:45:40.433Z,50.16
2018-04-28T19:48:08.787Z,50.38
2018-04-28T19:50:37.121Z,50.13
2018-04-28T19:53:05.477Z,50.20
2018-04-28T19:55:33.813Z,50.21
2018-04-28T19:58:02.294Z,50.08
2018-04-28T20:00:30.713Z,50.18
2018-04-28T20:02:59.045Z,50.35
2018-04-28T20:05:27.378Z,50.30
2018-04-28T20:07:55.732Z,50.00
2018-04-28T20:10:24.082Z,49.97
2018-04-28T20:12:52.433Z,50.24
2018-04-28T20:15:20.768Z,50.41
2018-04-28T20:17:49.709Z,51.81
2018-04-28T20:20:18.190Z,52.01
2018-04-28T20:22:58.416Z,51.80
2018-04-28T20:25:26.768Z,52.11
2018-04-28T20:27:55.134Z,51.88
2018-04-28T20:30:23.519Z,51.68
2018-04-28T20:32:52.013Z,51.86
2018-04-28T20:35:20.333Z,51.82
2018-04-28T20:37:48.681Z,51.85
2018-04-28T20:40:17.017Z,52.05
2018-04-28T20:42:45.496Z,52.06
2018-04-28T20:45:14.429Z,52.69
2018-04-28T20:47:42.785Z,52.49
2018-04-28T20:50:11.121Z,52.36
2018-04-28T20:52:39.480Z,52.20
2018-04-28T20:55:07.816Z,52.78
2018-04-28T20:57:36.181Z,53.65
2018-04-28T21:00:04.515Z,53.73
2018-04-28T21:02:32.840Z,54.00
2018-04-28T21:05:01.262Z,53.81
2018-04-28T21:07:29.599Z,54.49
2018-04-28T21:09:57.944Z,53.79
2018-04-28T21:12:26.280Z,54.05
2018-04-28T21:14:54.636Z,54.08
2018-04-28T21:17:22.974Z,54.19
2018-04-28T21:19:51.333Z,54.35
2018-04-28T21:22:19.656Z,53.98
2018-04-28T21:24:48.921Z,53.75
2018-04-28T21:27:17.255Z,54.19
2018-04-28T21:29:45.773Z,54.16
2018-04-28T21:32:14.088Z,54.27
2018-04-28T21:34:42.449Z,54.39
2018-04-28T21:37:10.776Z,54.75
2018-04-28T21:39:39.237Z,55.49
2018-04-28T21:42:07.687Z,55.96
2018-04-28T21:44:36.396Z,55.60
2018-04-28T21:47:04.730Z,56.02
2018-04-28T21:49:33.085Z,55.85
2018-04-28T21:52:01.417Z,56.01
2018-04-28T21:54:29.769Z,56.07
2018-04-28T21:56:58.104Z,56.14
2018-04-28T21:59:26.460Z,56.12
2018-04-28T22:01:54.793Z,56.35
2018-04-28T22:04:24.177Z,56.32
2018-04-28T22:06:52.577Z,56.25
2018-04-28T22:09:20.919Z,56.70
2018-04-28T22:11:49.249Z,56.83
2018-04-28T22:14:17.604Z,57.31
2018-04-28T22:16:45.941Z,57.28
2018-04-28T22:19:14.307Z,57.41
2018-04-28T22:21:42.639Z,57.66
2018-04-28T22:24:10.996Z,57.99
2018-04-28T22:26:39.329Z,57.66
2018-04-28T22:29:07.693Z,57.51
2018-04-28T22:31:36.021Z,57.03
2018-04-28T22:34:04.372Z,56.75
2018-04-28T22:36:32.705Z,56.46
2018-04-28T22:39:01.052Z,57.32
2018-04-28T22:41:29.385Z,57.71
2018-04-28T22:43:58.708Z,58.35
2018-04-28T22:46:27.036Z,58.22
2018-04-28T22:48:55.389Z,58.05
2018-04-28T22:51:23.721Z,57.80
2018-04-28T22:53:52.072Z,57.28
2018-04-28T22:56:20.409Z,57.37
2018-04-28T22:58:48.757Z,57.63
2018-04-28T23:01:17.093Z,57.46
2018-04-28T23:03:45.545Z,57.66
2018-04-28T23:06:13.876Z,57.06
2018-04-28T23:08:42.213Z,57.41
2018-04-28T23:11:10.573Z,56.95
2018-04-28T23:13:38.905Z,57.48
2018-04-28T23:16:07.261Z,57.78
2018-04-28T23:18:35.798Z,57.52
2018-04-28T23:21:04.173Z,57.09
2018-04-28T23:23:33.449Z,57.02
2018-04-28T23:26:01.805Z,56.63
2018-04-28T23:28:30.141Z,56.45
2018-04-28T23:30:58.501Z,56.46
2018-04-28T23:33:27.036Z,56.43
2018-04-28T23:35:55.469Z,56.38
2018-04-28T23:38:23.806Z,56.75
2018-04-28T23:40:52.527Z,57.20
2018-04-28T23:43:21.030Z,57.55
2018-04-28T23:45:49.417Z,57.44
2018-04-28T23:48:17.751Z,57.70
2018-04-28T23:50:46.160Z,58.03
2018-04-28T23:53:14.497Z,57.80
2018-04-28T23:55:42.853Z,57.82
2018-04-28T23:58:11.192Z,57.92
